Flood From: 22-02-2018 16:00 Until: 23-02-2018 16:00 warning for: Flood Level: Yellow info button

Although rather usual in this region, locally or potentially dangerous phenomena are expected. (such as local winds, summer thunderstorms, rising streams or high waves) Be aware and pay attention to the latest weather updates, especially if you carry out activities exposed to weather or close to a stream or shoreline. 


Meteo18 Weather Cam more information Meteo18 Weather Cam


Thunder radar more information blitzortung!


Rain radar more information rain snow radar


Visit our other weather sites:

Template documentation
and downloads

And another site



Weather Underground History page Text

Daily Summary for April 1, 2017 Units:  Metric    English   Both
« Previous Day
Next Day »
Daily Weekly Monthly Yearly Custom
  High: Low: Average:
Temperature: -17.8 °C -13.3 °C -11.8 °C
Dew Point: -17.8 °C -14.4 °C -13.3 °C
Humidity: Humidity % 59 % 84 %
Wind Speed: 0 km/h 0 km/h 8.2 km/h
Wind Gust: 0 km/h - -
Wind:- - SW
Pressure: 0 hPa 34327.3 hPa -
Precipitation: 147.32 mm    
Historical Graphs
 
 
Tabular Data for April 1, 2017
Time Temperature Dew Point Pressure Wind Wind Speed Wind Gust Humidity Rainfall Rate (Hourly)
-17.8 °C -17.8 °C 0 hPa Calm     Humidity % 0 mm
00:02 -11.6 °C -12 °C 34384.8 hPa SW 7.7 km/h 15.6 km/h 95 % 63.5 mm
00:12 -11.6 °C -12 °C 34384.8 hPa SW 5.1 km/h 15.6 km/h 95 % 58.42 mm
00:17 -11.6 °C -12 °C 34384.8 hPa SSW 2.6 km/h 15.6 km/h 95 % 58.42 mm
00:22 -11.6 °C -12 °C 34384.8 hPa Calm   15.6 km/h 95 % 58.42 mm
00:27 -11.6 °C -12.1 °C 34384.8 hPa WNW 5.1 km/h 7.7 km/h 95 % 50.8 mm
00:32 -11.7 °C -12.2 °C 34384.8 hPa West 7.7 km/h 7.7 km/h 94 % 50.8 mm
00:42 -11.9 °C -12.4 °C 34395 hPa WNW 2.6 km/h 18.2 km/h 94 % 38.1 mm
00:52 -12.1 °C -12.6 °C 34395 hPa Calm   18.2 km/h 94 % 63.5 mm
01:02 -12.1 °C -12.6 °C 34384.8 hPa Calm   7.7 km/h 94 % 76.2 mm
01:07 -12.2 °C -12.7 °C 34395 hPa Calm   5.1 km/h 94 % 83.82 mm
01:12 -12.2 °C -12.7 °C 34395 hPa Calm   5.1 km/h 94 % 83.82 mm
01:17 -12.2 °C -12.7 °C 34395 hPa SSW 2.6 km/h 2.6 km/h 94 % 91.44 mm
01:22 -12.2 °C -12.6 °C 34395 hPa Calm   5.1 km/h 95 % 83.82 mm
01:32 -12.1 °C -12.6 °C 34384.8 hPa Calm   5.1 km/h 95 % 91.44 mm
01:42 -12.1 °C -12.6 °C 34384.8 hPa SSE 2.6 km/h 5.1 km/h 95 % 96.52 mm
01:47 -12.1 °C -12.5 °C 34384.8 hPa Calm   5.1 km/h 95 % 63.5 mm
01:52 -12.1 °C -12.5 °C 34384.8 hPa SW 7.7 km/h 7.7 km/h 95 % 63.5 mm
01:57 -12.1 °C -12.5 °C 34371.3 hPa South 5.1 km/h 7.7 km/h 95 % 50.8 mm
02:02 -12.1 °C -12.5 °C 34371.3 hPa SSW 2.6 km/h 10.3 km/h 95 % 38.1 mm
02:07 -12.1 °C -12.4 °C 34384.8 hPa SSW 5.1 km/h 10.3 km/h 96 % 38.1 mm
02:12 -12.1 °C -12.4 °C 34384.8 hPa South 5.1 km/h 10.3 km/h 96 % 38.1 mm
02:17 -12.1 °C -12.4 °C 34384.8 hPa SSW 2.6 km/h 7.7 km/h 96 % 33.02 mm
02:22 -12.1 °C -12.4 °C 34384.8 hPa SW 5.1 km/h 7.7 km/h 96 % 33.02 mm
02:32 -12.1 °C -12.4 °C 34371.3 hPa Calm   10.3 km/h 96 % 25.4 mm
02:42 -12.1 °C -12.4 °C 34371.3 hPa South 5.1 km/h 10.3 km/h 96 % 20.32 mm
02:47 -12.2 °C -12.5 °C 34371.3 hPa SSW 5.1 km/h 10.3 km/h 96 % 20.32 mm
02:52 -12.1 °C -12.4 °C 34361.1 hPa South 5.1 km/h 15.6 km/h 96 % 20.32 mm
02:57 -12.1 °C -12.4 °C 34361.1 hPa SSW 2.6 km/h 15.6 km/h 96 % 20.32 mm
03:02 -12.1 °C -12.4 °C 34361.1 hPa Calm   15.6 km/h 96 % 20.32 mm
03:07 -12.1 °C -12.4 °C 34361.1 hPa SSW 7.7 km/h 10.3 km/h 96 % 12.7 mm
03:12 -12.1 °C -12.4 °C 34361.1 hPa SW 7.7 km/h 15.6 km/h 96 % 12.7 mm
03:17 -12.1 °C -12.4 °C 34361.1 hPa SSW 10.3 km/h 18.2 km/h 96 % 12.7 mm
03:22 -12.2 °C -12.5 °C 34361.1 hPa SSW 12.9 km/h 18.2 km/h 96 % 7.62 mm
03:27 -12.2 °C -12.5 °C 34347.6 hPa SSW 2.6 km/h 18.2 km/h 96 % 7.62 mm
03:32 -12.2 °C -12.5 °C 34347.6 hPa SW 5.1 km/h 18.2 km/h 96 % 7.62 mm
03:37 -12.2 °C -12.5 °C 34347.6 hPa SW 2.6 km/h 15.6 km/h 96 % 7.62 mm
03:42 -12.2 °C -12.6 °C 34347.6 hPa South 2.6 km/h 12.9 km/h 96 % 0 mm
03:47 -12.2 °C -12.6 °C 34347.6 hPa SW 7.7 km/h 12.9 km/h 96 % 0 mm
03:52 -12.3 °C -12.6 °C 34347.6 hPa SSW 10.3 km/h 10.3 km/h 96 % 0 mm
03:57 -12.3 °C -12.6 °C 34347.6 hPa SSW 15.6 km/h 15.6 km/h 96 % 0 mm
04:02 -12.3 °C -12.6 °C 34347.6 hPa SSW 10.3 km/h 20.8 km/h 96 % 0 mm
04:07 -12.3 °C -12.7 °C 34347.6 hPa SSW 10.3 km/h 20.8 km/h 96 % 0 mm
04:12 -12.3 °C -12.7 °C 34347.6 hPa SSW 12.9 km/h 20.8 km/h 96 % 0 mm
04:17 -12.3 °C -12.7 °C 34347.6 hPa SSW 5.1 km/h 18.2 km/h 96 % 0 mm
04:22 -12.3 °C -12.7 °C 34347.6 hPa SSW 7.7 km/h 15.6 km/h 96 % 0 mm
04:27 -12.3 °C -12.7 °C 34347.6 hPa SW 10.3 km/h 18.2 km/h 96 % 0 mm
04:32 -12.4 °C -12.7 °C 34347.6 hPa South 10.3 km/h 18.2 km/h 96 % 0 mm
04:42 -12.4 °C -12.8 °C 34347.6 hPa SW 7.7 km/h 18.2 km/h 96 % 0 mm
04:47 -12.4 °C -12.8 °C 34347.6 hPa SSW 15.6 km/h 20.8 km/h 96 % 0 mm
04:52 -12.4 °C -12.8 °C 34337.4 hPa SSW 10.3 km/h 20.8 km/h 96 % 0 mm
04:57 -12.4 °C -12.8 °C 34337.4 hPa WSW 20.8 km/h 20.8 km/h 96 % 0 mm
05:02 -12.4 °C -12.8 °C 34337.4 hPa SW 12.9 km/h 20.8 km/h 96 % 0 mm
05:07 -12.4 °C -12.8 °C 34337.4 hPa SW 10.3 km/h 23.3 km/h 96 % 0 mm
05:12 -12.4 °C -12.8 °C 34337.4 hPa SW 12.9 km/h 23.3 km/h 96 % 0 mm
05:17 -12.4 °C -12.8 °C 34337.4 hPa SW 15.6 km/h 20.8 km/h 96 % 0 mm
05:22 -12.4 °C -12.8 °C 34337.4 hPa SW 10.3 km/h 20.8 km/h 96 % 0 mm
05:27 -12.4 °C -12.8 °C 34337.4 hPa SW 5.1 km/h 23.3 km/h 96 % 0 mm
05:32 -12.4 °C -12.8 °C 34337.4 hPa SSW 10.3 km/h 23.3 km/h 96 % 0 mm
05:37 -12.4 °C -12.8 °C 34337.4 hPa SW 7.7 km/h 20.8 km/h 96 % 0 mm
05:42 -12.4 °C -12.8 °C 34337.4 hPa SW 7.7 km/h 20.8 km/h 96 % 0 mm
05:47 -12.4 °C -12.8 °C 34337.4 hPa SW 5.1 km/h 20.8 km/h 96 % 0 mm
05:52 -12.4 °C -12.8 °C 34337.4 hPa SW 5.1 km/h 20.8 km/h 96 % 0 mm
05:57 -12.5 °C -12.8 °C 34337.4 hPa SSW 5.1 km/h 20.8 km/h 96 % 0 mm
06:02 -12.5 °C -12.8 °C 34337.4 hPa WSW 10.3 km/h 20.8 km/h 96 % 0 mm
06:07 -12.6 °C -13 °C 34337.4 hPa SW 12.9 km/h 15.6 km/h 95 % 0 mm
06:12 -12.6 °C -13 °C 34337.4 hPa WSW 18.2 km/h 18.2 km/h 95 % 0 mm
06:17 -12.6 °C -13 °C 34337.4 hPa WSW 10.3 km/h 15.6 km/h 95 % 0 mm
06:22 -12.6 °C -13 °C 34337.4 hPa South 5.1 km/h 28.5 km/h 95 % 0 mm
06:27 -12.6 °C -13 °C 34337.4 hPa SW 5.1 km/h 28.5 km/h 95 % 0 mm
06:32 -12.6 °C -13 °C 34337.4 hPa SSW 5.1 km/h 15.6 km/h 95 % 0 mm
06:37 -12.6 °C -13 °C 34337.4 hPa South 5.1 km/h 15.6 km/h 95 % 0 mm
06:42 -12.6 °C -13 °C 34337.4 hPa WSW 10.3 km/h 15.6 km/h 95 % 0 mm
06:47 -12.6 °C -13.1 °C 34337.4 hPa SW 7.7 km/h 15.6 km/h 95 % 0 mm
06:57 -12.6 °C -13.1 °C 34337.4 hPa SSW 5.1 km/h 15.6 km/h 95 % 0 mm
07:02 -12.6 °C -13.1 °C 34337.4 hPa SW 5.1 km/h 15.6 km/h 95 % 0 mm
07:07 -12.6 °C -13.1 °C 34337.4 hPa South 5.1 km/h 12.9 km/h 95 % 0 mm
07:12 -12.7 °C -13.1 °C 34337.4 hPa SW 5.1 km/h 12.9 km/h 95 % 0 mm
07:17 -12.7 °C -13.1 °C 34337.4 hPa SW 2.6 km/h 12.9 km/h 95 % 0 mm
07:22 -12.7 °C -13.1 °C 34337.4 hPa South 2.6 km/h 12.9 km/h 95 % 0 mm
07:27 -12.7 °C -13.2 °C 34337.4 hPa WSW 7.7 km/h 10.3 km/h 95 % 0 mm
07:32 -12.7 °C -13.2 °C 34337.4 hPa WSW 7.7 km/h 10.3 km/h 95 % 0 mm
07:37 -12.7 °C -13.2 °C 34337.4 hPa West 7.7 km/h 18.2 km/h 95 % 0 mm
07:42 -12.7 °C -13.2 °C 34337.4 hPa WSW 5.1 km/h 18.2 km/h 95 % 0 mm
07:47 -12.8 °C -13.2 °C 34337.4 hPa West 10.3 km/h 18.2 km/h 95 % 0 mm
07:52 -12.8 °C -13.2 °C 34347.6 hPa WSW 7.7 km/h 18.2 km/h 95 % 0 mm
07:57 -12.8 °C -13.3 °C 34347.6 hPa West 15.6 km/h 15.6 km/h 95 % 0 mm
08:02 -12.8 °C -13.3 °C 34347.6 hPa SW 7.7 km/h 15.6 km/h 94 % 0 mm
08:12 -12.8 °C -13.3 °C 34347.6 hPa Calm   15.6 km/h 94 % 0 mm
08:17 -12.8 °C -13.3 °C 34347.6 hPa WSW 7.7 km/h 12.9 km/h 94 % 0 mm
08:22 -12.8 °C -13.3 °C 34347.6 hPa SW 5.1 km/h 12.9 km/h 94 % 0 mm
08:27 -12.8 °C -13.3 °C 34347.6 hPa WSW 5.1 km/h 12.9 km/h 94 % 0 mm
08:32 -12.8 °C -13.3 °C 34347.6 hPa WSW 10.3 km/h 12.9 km/h 94 % 0 mm
08:37 -12.8 °C -13.3 °C 34347.6 hPa WSW 10.3 km/h 20.8 km/h 94 % 0 mm
08:42 -12.8 °C -13.3 °C 34347.6 hPa WSW 5.1 km/h 20.8 km/h 94 % 0 mm
08:47 -12.8 °C -13.3 °C 34361.1 hPa WSW 2.6 km/h 15.6 km/h 94 % 0 mm
08:52 -12.8 °C -13.3 °C 34361.1 hPa SW 5.1 km/h 15.6 km/h 94 % 0 mm
08:57 -12.8 °C -13.3 °C 34361.1 hPa WSW 2.6 km/h 15.6 km/h 94 % 0 mm
09:02 -12.7 °C -13.2 °C 34361.1 hPa SW 5.1 km/h 15.6 km/h 94 % 0 mm
09:07 -12.7 °C -13.2 °C 34361.1 hPa West 7.7 km/h 12.9 km/h 94 % 0 mm
09:12 -12.8 °C -13.3 °C 34361.1 hPa WSW 10.3 km/h 12.9 km/h 94 % 0 mm
09:17 -12.8 °C -13.4 °C 34361.1 hPa WSW 12.9 km/h 18.2 km/h 93 % 0 mm
09:22 -12.7 °C -13.3 °C 34361.1 hPa WSW 12.9 km/h 18.2 km/h 93 % 0 mm
09:32 -12.7 °C -13.3 °C 34361.1 hPa West 5.1 km/h 18.2 km/h 93 % 0 mm
09:37 -12.7 °C -13.3 °C 34361.1 hPa SSW 5.1 km/h 15.6 km/h 93 % 0 mm
09:42 -12.7 °C -13.3 °C 34361.1 hPa SW 5.1 km/h 15.6 km/h 93 % 0 mm
09:47 -12.7 °C -13.3 °C 34361.1 hPa WSW 5.1 km/h 18.2 km/h 93 % 0 mm
09:52 -12.7 °C -13.3 °C 34361.1 hPa West 2.6 km/h 18.2 km/h 93 % 0 mm
09:57 -12.6 °C -13.3 °C 34371.3 hPa SW 15.6 km/h 25.9 km/h 92 % 0 mm
10:02 -12.6 °C -13.3 °C 34371.3 hPa West 10.3 km/h 25.9 km/h 92 % 0 mm
10:07 -12.6 °C -13.3 °C 34371.3 hPa SW 5.1 km/h 23.3 km/h 92 % 0 mm
10:12 -12.6 °C -13.2 °C 34371.3 hPa WSW 12.9 km/h 23.3 km/h 92 % 0 mm
10:17 -12.5 °C -13.2 °C 34371.3 hPa WSW 10.3 km/h 23.3 km/h 92 % 0 mm
10:22 -12.4 °C -13.2 °C 34371.3 hPa SW 12.9 km/h 18.2 km/h 91 % 0 mm
10:27 -12.4 °C -13.2 °C 34384.8 hPa SW 15.6 km/h 25.9 km/h 91 % 0 mm
10:32 -12.4 °C -13.2 °C 34384.8 hPa West 15.6 km/h 25.9 km/h 91 % 0 mm
10:42 -12.3 °C -13.1 °C 34384.8 hPa West 5.1 km/h 23.3 km/h 91 % 0 mm
10:47 -12.3 °C -13.2 °C 34371.3 hPa WSW 7.7 km/h 20.8 km/h 90 % 0 mm
10:52 -12.3 °C -13.2 °C 34384.8 hPa WSW 18.2 km/h 20.8 km/h 90 % 0 mm
10:57 -12.2 °C -13.1 °C 34384.8 hPa West 12.9 km/h 20.8 km/h 90 % 0 mm
11:02 -12.2 °C -13.1 °C 34384.8 hPa West 5.1 km/h 20.8 km/h 89 % 0 mm
11:07 -12.1 °C -13 °C 34384.8 hPa SSE 5.1 km/h 20.8 km/h 89 % 0 mm
11:12 -12 °C -13.1 °C 34371.3 hPa WSW 7.7 km/h 18.2 km/h 88 % 0 mm
11:17 -11.9 °C -12.8 °C 34371.3 hPa West 5.1 km/h 20.8 km/h 89 % 0 mm
11:22 -11.7 °C -12.8 °C 34371.3 hPa Calm   20.8 km/h 88 % 0 mm
11:27 -11.6 °C -12.8 °C 34371.3 hPa West 10.3 km/h 12.9 km/h 87 % 0 mm
11:32 -11.7 °C -13.1 °C 34371.3 hPa West 12.9 km/h 18.2 km/h 85 % 0 mm
11:37 -11.7 °C -13.1 °C 34371.3 hPa West 5.1 km/h 18.2 km/h 85 % 0 mm
11:42 -11.7 °C -13 °C 34371.3 hPa WNW 7.7 km/h 18.2 km/h 86 % 0 mm
11:47 -11.7 °C -13.2 °C 34371.3 hPa West 12.9 km/h 18.2 km/h 84 % 0 mm
11:52 -11.6 °C -13.2 °C 34371.3 hPa West 12.9 km/h 18.2 km/h 83 % 0 mm
11:57 -11.5 °C -13.1 °C 34371.3 hPa West 7.7 km/h 18.2 km/h 83 % 0 mm
12:02 -11.4 °C -13.1 °C 34371.3 hPa WSW 15.6 km/h 18.2 km/h 82 % 0 mm
12:07 -11.5 °C -13.4 °C 34371.3 hPa West 12.9 km/h 23.3 km/h 79 % 0 mm
12:12 -11.5 °C -13.3 °C 34371.3 hPa West 12.9 km/h 25.9 km/h 80 % 0 mm
12:17 -11.5 °C -13.2 °C 34361.1 hPa West 12.9 km/h 25.9 km/h 81 % 0 mm
12:22 -11.4 °C -13.1 °C 34361.1 hPa WSW 12.9 km/h 25.9 km/h 82 % 0 mm
12:27 -11.2 °C -13.1 °C 34361.1 hPa WSW 5.1 km/h 18.2 km/h 80 % 0 mm
12:32 -11 °C -13.2 °C 34361.1 hPa West 2.6 km/h 18.2 km/h 77 % 0 mm
12:37 -10.9 °C -13.2 °C 34361.1 hPa WSW 18.2 km/h 18.2 km/h 76 % 0 mm
12:42 -10.7 °C -12.8 °C 34361.1 hPa SW 18.2 km/h 28.5 km/h 78 % 0 mm
12:47 -10.7 °C -12.8 °C 34347.6 hPa SSE 15.6 km/h 28.5 km/h 78 % 0 mm
12:52 -10.7 °C -12.7 °C 34361.1 hPa SW 15.6 km/h 31.1 km/h 79 % 0 mm
12:57 -10.7 °C -12.7 °C 34361.1 hPa SW 18.2 km/h 31.1 km/h 78 % 0 mm
13:02 -10.7 °C -12.9 °C 34361.1 hPa Calm   31.1 km/h 76 % 0 mm
13:12 -10.7 °C -12.8 °C 34347.6 hPa West 15.6 km/h 23.3 km/h 77 % 0 mm
13:17 -10.8 °C -13.1 °C 34361.1 hPa West 12.9 km/h 20.8 km/h 76 % 0 mm
13:22 -10.7 °C -13.2 °C 34347.6 hPa West 10.3 km/h 20.8 km/h 74 % 0 mm
13:27 -10.7 °C -13.3 °C 34347.6 hPa West 2.6 km/h 20.8 km/h 73 % 0 mm
13:32 -10.5 °C -12.6 °C 34347.6 hPa West 5.1 km/h 20.8 km/h 78 % 0 mm
13:37 -10.5 °C -12.9 °C 34347.6 hPa SW 7.7 km/h 20.8 km/h 75 % 0 mm
13:42 -10.2 °C -13.3 °C 34347.6 hPa SW 23.3 km/h 46.7 km/h 69 % 0 mm
13:52 -10.7 °C -13.4 °C 34361.1 hPa WSW 18.2 km/h 46.7 km/h 72 % 0 mm
13:57 -10.8 °C -13.7 °C 34361.1 hPa WSW 12.9 km/h 36.2 km/h 71 % 0 mm
14:02 -10.6 °C -13.6 °C 34347.6 hPa West 28.5 km/h 31.1 km/h 70 % 0 mm
14:12 -10.3 °C -14.1 °C 34347.6 hPa WNW 5.1 km/h 33.6 km/h 64 % 0 mm
14:17 -10.2 °C -14 °C 34347.6 hPa NW 18.2 km/h 33.6 km/h 63 % 0 mm
14:22 -10.1 °C -14.1 °C 34347.6 hPa WSW 20.8 km/h 28.5 km/h 62 % 0 mm
14:27 -10.1 °C -13.9 °C 34347.6 hPa WSW 18.2 km/h 41.4 km/h 63 % 0 mm
14:32 -10.1 °C -13.8 °C 34347.6 hPa WSW 12.9 km/h 41.4 km/h 64 % 0 mm
14:42 -10.1 °C -13.7 °C 34347.6 hPa West 12.9 km/h 31.1 km/h 65 % 0 mm
14:47 -10.1 °C -14.1 °C 34337.4 hPa West 10.3 km/h 25.9 km/h 62 % 0 mm
14:52 -10.2 °C -14 °C 34337.4 hPa WSW 10.3 km/h 23.3 km/h 63 % 0 mm
14:57 -10.1 °C -14.3 °C 34347.6 hPa WSW 18.2 km/h 28.5 km/h 60 % 0 mm
15:02 -10.1 °C -13.9 °C 34337.4 hPa SSW 7.7 km/h 28.5 km/h 63 % 0 mm
15:12 -10.2 °C -14 °C 34347.6 hPa WSW 18.2 km/h 36.2 km/h 63 % 0 mm
15:22 -10.9 °C -13.4 °C 34347.6 hPa SW 23.3 km/h 57 km/h 74 % 0 mm
15:32 -11.3 °C -13.8 °C 34347.6 hPa West 25.9 km/h 51.8 km/h 74 % 0 mm
15:37 -11.6 °C -13.8 °C 34347.6 hPa WSW 25.9 km/h 44.1 km/h 76 % 0 mm
15:42 -11.7 °C -14 °C 34347.6 hPa WSW 23.3 km/h 44.1 km/h 76 % 0 mm
15:52 -11.7 °C -13.8 °C 34347.6 hPa SW 2.6 km/h 41.4 km/h 77 % 12.7 mm
15:57 -11.5 °C -14 °C 34347.6 hPa WSW 7.7 km/h 28.5 km/h 74 % 12.7 mm
16:02 -11.3 °C -13.9 °C 34347.6 hPa SW 7.7 km/h 18.2 km/h 73 % 12.7 mm
16:12 -11 °C -14.1 °C 34337.4 hPa SW 10.3 km/h 12.9 km/h 69 % 12.7 mm
16:17 -10.7 °C -13.8 °C 34337.4 hPa SW 12.9 km/h 18.2 km/h 69 % 12.7 mm
16:22 -10.6 °C -14 °C 34337.4 hPa SSW 15.6 km/h 18.2 km/h 66 % 12.7 mm
16:32 -10.3 °C -13.6 °C 34337.4 hPa WSW 15.6 km/h 31.1 km/h 67 % 12.7 mm
16:42 -10 °C -13.5 °C 34337.4 hPa SW 31.1 km/h 33.6 km/h 66 % 12.7 mm
16:47 -9.9 °C -13.4 °C 34337.4 hPa WSW 12.9 km/h 36.2 km/h 66 % 7.62 mm
16:52 -9.9 °C -13.4 °C 34337.4 hPa West 15.6 km/h 36.2 km/h 66 % 0 mm
17:02 -9.9 °C -13.1 °C 34337.4 hPa SW 28.5 km/h 31.1 km/h 68 % 0 mm
17:07 -9.8 °C -13.7 °C 34337.4 hPa SW 25.9 km/h 33.6 km/h 63 % 0 mm
17:12 -9.8 °C -14.2 °C 34337.4 hPa SW 15.6 km/h 33.6 km/h 59 % 0 mm
17:17 -9.9 °C -13.9 °C 34337.4 hPa SSW 28.5 km/h 33.6 km/h 62 % 0 mm
17:22 -9.9 °C -13.9 °C 34337.4 hPa WSW 20.8 km/h 38.8 km/h 62 % 0 mm
17:32 -9.8 °C -13.8 °C 34337.4 hPa SSW 20.8 km/h 38.8 km/h 62 % 0 mm
17:42 -10.1 °C -13.5 °C 34337.4 hPa WSW 18.2 km/h 33.6 km/h 66 % 0 mm
17:47 -10.1 °C -13.7 °C 34327.3 hPa WSW 15.6 km/h 28.5 km/h 65 % 0 mm
17:52 -9.9 °C -13.7 °C 34337.4 hPa SW 15.6 km/h 28.5 km/h 64 % 0 mm
17:57 -10.1 °C -13.5 °C 34337.4 hPa West 20.8 km/h 36.2 km/h 66 % 0 mm
18:02 -9.9 °C -13.3 °C 34337.4 hPa SW 15.6 km/h 36.2 km/h 67 % 0 mm
18:07 -9.9 °C -13.7 °C 34337.4 hPa West 5.1 km/h 36.2 km/h 63 % 0 mm
18:12 -9.8 °C -13.8 °C 34337.4 hPa SW 7.7 km/h 36.2 km/h 62 % 0 mm
18:17 -9.7 °C -13.8 °C 34337.4 hPa West 7.7 km/h 36.2 km/h 61 % 0 mm
18:22 -9.8 °C -13.9 °C 34337.4 hPa West 10.3 km/h 36.2 km/h 61 % 0 mm
18:32 -9.8 °C -13.4 °C 34337.4 hPa NNW 10.3 km/h 23.3 km/h 65 % 0 mm
18:37 -10.1 °C -13.3 °C 34337.4 hPa NW 2.6 km/h 18.2 km/h 68 % 0 mm
18:42 -10.3 °C -13.1 °C 34337.4 hPa NW 2.6 km/h 15.6 km/h 72 % 0 mm
18:52 -10.7 °C -13.2 °C 34347.6 hPa NNW 12.9 km/h 12.9 km/h 74 % 0 mm
18:57 -10.7 °C -13 °C 34347.6 hPa North 12.9 km/h 15.6 km/h 76 % 0 mm
19:02 -10.8 °C -12.9 °C 34347.6 hPa NNE 2.6 km/h 15.6 km/h 77 % 0 mm
19:12 -10.8 °C -13.1 °C 34347.6 hPa Calm   12.9 km/h 76 % 0 mm
19:17 -10.8 °C -13.1 °C 34347.6 hPa Calm   10.3 km/h 76 % 0 mm
19:22 -10.7 °C -12.9 °C 34347.6 hPa NNW 2.6 km/h 10.3 km/h 77 % 0 mm
19:32 -10.8 °C -13.1 °C 34347.6 hPa Calm   7.7 km/h 76 % 0 mm
19:37 -10.8 °C -13.1 °C 34361.1 hPa West 2.6 km/h 7.7 km/h 76 % 0 mm
19:42 -10.8 °C -13.1 °C 34361.1 hPa North 2.6 km/h 7.7 km/h 76 % 0 mm
19:47 -10.9 °C -13.2 °C 34361.1 hPa Calm   7.7 km/h 76 % 0 mm
19:52 -10.9 °C -13.2 °C 34361.1 hPa NNW 5.1 km/h 7.7 km/h 76 % 0 mm
20:02 -11.1 °C -13.3 °C 34361.1 hPa WNW 2.6 km/h 7.7 km/h 77 % 0 mm
20:12 -11.3 °C -13.4 °C 34371.3 hPa WNW 7.7 km/h 7.7 km/h 77 % 0 mm
20:17 -11.3 °C -13.5 °C 34371.3 hPa WSW 10.3 km/h 12.9 km/h 77 % 0 mm
20:22 -11.3 °C -13.6 °C 34371.3 hPa SW 7.7 km/h 23.3 km/h 76 % 0 mm
20:27 -11.3 °C -13.7 °C 34371.3 hPa WSW 10.3 km/h 23.3 km/h 75 % 0 mm
20:32 -11.4 °C -14.1 °C 34371.3 hPa WSW 5.1 km/h 23.3 km/h 73 % 0 mm
20:37 -11.4 °C -14.3 °C 34371.3 hPa SW 7.7 km/h 15.6 km/h 71 % 0 mm
20:42 -11.4 °C -14.3 °C 34371.3 hPa SW 2.6 km/h 15.6 km/h 71 % 0 mm
20:47 -11.5 °C -14.4 °C 34371.3 hPa SW 2.6 km/h 15.6 km/h 70 % 0 mm
20:52 -11.6 °C -14.2 °C 34371.3 hPa Calm   15.6 km/h 73 % 0 mm
21:02 -11.7 °C -14.4 °C 34384.8 hPa Calm   5.1 km/h 72 % 0 mm
21:12 -11.9 °C -14.2 °C 34384.8 hPa Calm   2.6 km/h 75 % 0 mm
21:17 -12 °C -14.3 °C 34384.8 hPa Calm   2.6 km/h 75 % 0 mm
21:22 -12.1 °C -14.2 °C 34384.8 hPa Calm   2.6 km/h 77 % 0 mm
21:32 -12.1 °C -14.3 °C 34384.8 hPa Calm   2.6 km/h 76 % 0 mm
21:42 -12.2 °C -14.3 °C 34395 hPa Calm   2.6 km/h 77 % 0 mm
21:52 -12.5 °C -14.3 °C 34395 hPa Calm   2.6 km/h 80 % 0 mm
22:02 -12.6 °C -14.3 °C 34395 hPa Calm   2.6 km/h 81 % 0 mm
22:12 -12.5 °C -14.3 °C 34405.1 hPa Calm   2.6 km/h 80 % 0 mm
22:17 -12.6 °C -14.3 °C 34405.1 hPa Calm   2.6 km/h 81 % 0 mm
22:27 -12.6 °C -14.2 °C 34405.1 hPa Calm   2.6 km/h 82 % 0 mm
22:32 -12.7 °C -14.3 °C 34405.1 hPa Calm   2.6 km/h 82 % 0 mm
22:37 -12.7 °C -14.2 °C 34405.1 hPa Calm   2.6 km/h 83 % 0 mm
22:42 -12.7 °C -14.1 °C 34405.1 hPa NE 5.1 km/h 5.1 km/h 85 % 0 mm
22:47 -12.8 °C -14.1 °C 34405.1 hPa NE 2.6 km/h 5.1 km/h 86 % 0 mm
22:52 -12.8 °C -14.1 °C 34405.1 hPa ENE 5.1 km/h 5.1 km/h 86 % 0 mm
22:57 -12.8 °C -14.1 °C 34405.1 hPa Calm   5.1 km/h 86 % 0 mm
23:02 -12.8 °C -13.9 °C 34405.1 hPa Calm   5.1 km/h 87 % 0 mm
23:07 -12.8 °C -14.1 °C 34405.1 hPa Calm   5.1 km/h 86 % 0 mm
23:12 -12.9 °C -14.1 °C 34405.1 hPa Calm   2.6 km/h 86 % 0 mm
23:17 -12.9 °C -14.1 °C 34418.7 hPa Calm     87 % 0 mm
23:22 -13 °C -14.1 °C 34418.7 hPa Calm     87 % 0 mm
23:32 -13.1 °C -14.2 °C 34418.7 hPa Calm     88 % 0 mm
23:42 -13.1 °C -14.2 °C 34418.7 hPa Calm     87 % 0 mm
23:47 -13.2 °C -14.2 °C 34418.7 hPa Calm     88 % 0 mm
23:52 -13.2 °C -14.3 °C 34418.7 hPa Calm     88 % 0 mm
23:57 -13.3 °C -14.2 °C 34418.7 hPa Calm     89 % 0 mm
Meteo18
Compliments of Weather Underground - 4 mb

Script developed by  Jim McMurry - jmcmurry@mwt.net Adapted for the template by  Wim van der Kuil - Leuven-Template.eu

You find our weather info also at:

European Weather Network

Weather Underground

Equipment we use:

Weather-station
Davis Vue

Weather-program
Meteobridge

Weather-server
Raspberry PI 2 B+

Provider
1 and 1

Davis Vue

Meteobridge

Raspberry PI 2 B+

1 and 1